KPRX/PRX METAR and TAF weather

Enter ICAO airport designator
Station Type Date Time Source
KPRX METAR 2019/08/22 19:56 UTC NOAA

KPRX 221956Z AUTO 17006KT 10SM CLR 35/22 A2991 RMK AO2 SLP131 T03500222


Station Type Date Time Source
KPRX Decoded METAR 2019/08/22 19:56 UTC NOAA

Station name not available
Aug 22, 2019 - 03:56 PM EDT / 2019.08.22 1956 UTC
Wind: from the S (170 degrees) at 7 MPH (6 KT):0
Visibility: 10 mile(s):0
Sky conditions: clear
Temperature: 95.0 F (35.0 C)
Heat index: 103.1 F (39.5 C):1
Dew Point: 72.0 F (22.2 C)
Relative Humidity: 47%
Pressure (altimeter): 29.91 in. Hg (1012 hPa)
ob: KPRX 221956Z AUTO 17006KT 10SM CLR 35/22 A2991 RMK AO2 SLP131 T03500222
cycle: 20

Station Type Date Time Source
KPRX TAF UTC NOAA

Error!

Example: see airport list